createdAt,value
2017-08-15T00:01:17.138Z,77.80
2017-08-15T00:03:44.656Z,77.80
2017-08-15T00:06:12.145Z,78.80
2017-08-15T00:08:40.026Z,78.10
2017-08-15T00:11:07.542Z,78.30
2017-08-15T00:13:35.071Z,78.50
2017-08-15T00:16:02.720Z,78.80
2017-08-15T00:18:30.222Z,79.00
2017-08-15T00:20:57.720Z,78.70
2017-08-15T00:23:25.214Z,79.90
2017-08-15T00:25:53.496Z,79.10
2017-08-15T00:28:21.777Z,79.20
2017-08-15T00:30:49.361Z,79.20
2017-08-15T00:33:16.885Z,79.00
2017-08-15T00:35:45.143Z,79.20
2017-08-15T00:38:12.623Z,79.10
2017-08-15T00:40:40.907Z,79.30
2017-08-15T00:43:08.422Z,79.20
2017-08-15T00:45:35.925Z,79.40
2017-08-15T00:48:03.417Z,79.60
2017-08-15T00:50:31.035Z,79.90
2017-08-15T00:52:58.567Z,80.30
2017-08-15T00:55:26.059Z,80.50
2017-08-15T00:57:54.454Z,80.80
2017-08-15T01:00:22.140Z,80.80
2017-08-15T01:02:49.702Z,80.80
2017-08-15T01:05:17.461Z,80.90
2017-08-15T01:07:44.992Z,81.00
2017-08-15T01:10:13.262Z,82.00
2017-08-15T01:12:41.538Z,81.50
2017-08-15T01:15:09.773Z,81.70
2017-08-15T01:17:37.279Z,81.70
2017-08-15T01:20:04.835Z,81.80
2017-08-15T01:22:32.327Z,81.90
2017-08-15T01:24:59.816Z,82.20
2017-08-15T01:27:27.418Z,82.40
2017-08-15T01:29:55.010Z,82.60
2017-08-15T01:32:22.501Z,82.40
2017-08-15T01:34:49.997Z,82.40
2017-08-15T01:37:17.513Z,82.40
2017-08-15T01:39:45.045Z,82.60
2017-08-15T01:42:12.542Z,82.50
2017-08-15T01:44:40.726Z,82.50
2017-08-15T01:47:09.496Z,83.30
2017-08-15T01:49:39.288Z,82.40
2017-08-15T01:52:06.792Z,82.40
2017-08-15T01:54:35.049Z,82.50
2017-08-15T01:57:02.567Z,82.40
2017-08-15T01:59:30.121Z,82.20
2017-08-15T02:01:57.616Z,82.60
2017-08-15T02:04:25.153Z,82.80
2017-08-15T02:06:52.680Z,82.90
2017-08-15T02:09:20.193Z,83.00
2017-08-15T02:11:47.734Z,82.70
2017-08-15T02:14:15.246Z,82.90
2017-08-15T02:16:43.523Z,83.30
2017-08-15T02:19:11.053Z,83.20
2017-08-15T02:21:38.566Z,83.10
2017-08-15T02:24:06.059Z,83.10
2017-08-15T02:26:33.553Z,83.30
2017-08-15T02:29:01.057Z,83.20
2017-08-15T02:31:28.532Z,83.50
2017-08-15T02:33:56.068Z,83.50
2017-08-15T02:36:23.590Z,83.50
2017-08-15T02:38:51.081Z,83.40
2017-08-15T02:41:18.589Z,83.50
2017-08-15T02:43:46.082Z,83.80
2017-08-15T02:46:13.624Z,84.00
2017-08-15T02:48:41.134Z,84.10
2017-08-15T02:51:08.721Z,84.10
2017-08-15T02:53:36.255Z,84.20
2017-08-15T02:56:03.770Z,84.30
2017-08-15T02:58:32.069Z,85.00
2017-08-15T03:00:59.587Z,84.90
2017-08-15T03:03:27.110Z,85.00
2017-08-15T03:05:54.605Z,85.00
2017-08-15T03:08:22.126Z,85.00
2017-08-15T03:10:49.624Z,85.10
2017-08-15T03:13:17.109Z,85.20
2017-08-15T03:15:44.651Z,85.10
2017-08-15T03:18:12.178Z,85.20
2017-08-15T03:20:39.674Z,85.50
2017-08-15T03:23:07.252Z,85.70
2017-08-15T03:25:35.529Z,86.00
2017-08-15T03:28:03.809Z,86.20
2017-08-15T03:30:31.382Z,86.10
2017-08-15T03:32:58.900Z,86.20
2017-08-15T03:35:27.178Z,86.70
2017-08-15T03:37:54.684Z,86.10
2017-08-15T03:40:22.195Z,86.10
2017-08-15T03:42:49.699Z,86.20
2017-08-15T03:45:17.190Z,86.40
2017-08-15T03:47:44.728Z,86.30
2017-08-15T03:50:12.261Z,86.20
2017-08-15T03:52:39.751Z,86.20
2017-08-15T03:55:07.288Z,86.20
2017-08-15T03:57:34.788Z,86.10
2017-08-15T04:00:02.283Z,86.30
2017-08-15T04:02:29.782Z,86.60
2017-08-15T04:04:57.301Z,86.70
2017-08-15T04:07:25.573Z,87.60
2017-08-15T04:09:53.841Z,86.90
2017-08-15T04:12:21.865Z,86.60
2017-08-15T04:14:49.354Z,86.00
2017-08-15T04:17:16.979Z,86.20
2017-08-15T04:19:44.492Z,86.20
2017-08-15T04:22:12.002Z,86.10
2017-08-15T04:24:39.495Z,86.20
2017-08-15T04:27:06.991Z,86.30
2017-08-15T04:29:34.504Z,86.40
2017-08-15T04:32:02.010Z,85.90
2017-08-15T04:34:29.513Z,85.60
2017-08-15T04:36:57.119Z,85.30
2017-08-15T04:39:25.397Z,86.60
2017-08-15T04:41:53.675Z,86.10
2017-08-15T04:44:22.035Z,85.30
2017-08-15T04:46:49.558Z,85.20
2017-08-15T04:49:17.070Z,85.10
2017-08-15T04:51:45.342Z,85.30
2017-08-15T04:54:13.630Z,85.20
2017-08-15T04:56:42.077Z,85.00
2017-08-15T04:59:09.578Z,85.00
2017-08-15T05:01:37.112Z,84.70
2017-08-15T05:04:04.733Z,84.50
2017-08-15T05:06:32.241Z,84.30
2017-08-15T05:08:59.776Z,84.40
2017-08-15T05:11:27.319Z,84.20
2017-08-15T05:13:54.811Z,83.80
2017-08-15T05:16:22.316Z,82.90
2017-08-15T05:18:49.854Z,82.00
2017-08-15T05:21:18.158Z,81.60
2017-08-15T05:23:45.690Z,81.60
2017-08-15T05:26:13.216Z,81.80
2017-08-15T05:28:40.751Z,82.00
2017-08-15T05:31:08.237Z,82.10
2017-08-15T05:33:35.753Z,81.90
2017-08-15T05:36:03.284Z,82.10
2017-08-15T05:38:30.811Z,82.30
2017-08-15T05:40:58.300Z,82.90
2017-08-15T05:43:25.833Z,82.60
2017-08-15T05:45:53.374Z,82.60
2017-08-15T05:48:20.867Z,83.10
2017-08-15T05:50:48.374Z,83.20
2017-08-15T05:53:15.867Z,82.90
2017-08-15T05:55:43.394Z,82.90
2017-08-15T05:58:10.911Z,83.30
2017-08-15T06:00:38.387Z,83.70
2017-08-15T06:03:05.983Z,83.80
2017-08-15T06:05:33.478Z,83.80
2017-08-15T06:08:00.966Z,83.90
2017-08-15T06:10:28.491Z,83.30
2017-08-15T06:12:55.981Z,82.90
2017-08-15T06:15:23.483Z,82.50
2017-08-15T06:17:50.982Z,82.70
2017-08-15T06:20:18.500Z,83.00
2017-08-15T06:22:46.090Z,83.30
2017-08-15T06:25:13.667Z,82.70
2017-08-15T06:27:41.960Z,82.90
2017-08-15T06:30:09.487Z,82.90
2017-08-15T06:32:37.096Z,82.40
2017-08-15T06:35:04.633Z,82.30
2017-08-15T06:37:32.172Z,82.20
2017-08-15T06:39:59.651Z,82.40
2017-08-15T06:42:28.353Z,82.40
2017-08-15T06:44:55.870Z,82.60
2017-08-15T06:47:24.421Z,82.70
2017-08-15T06:49:51.994Z,82.30
2017-08-15T06:52:19.507Z,82.10
2017-08-15T06:54:47.045Z,82.00
2017-08-15T06:57:15.341Z,81.80
2017-08-15T06:59:42.849Z,81.80
2017-08-15T07:02:10.353Z,81.60
2017-08-15T07:04:37.858Z,81.70
2017-08-15T07:07:05.372Z,81.50
2017-08-15T07:09:32.910Z,81.50
2017-08-15T07:12:00.400Z,81.70
2017-08-15T07:14:27.932Z,82.00
2017-08-15T07:16:56.357Z,80.70
2017-08-15T07:19:23.863Z,81.00
2017-08-15T07:21:51.370Z,80.80
2017-08-15T07:24:18.854Z,80.50
2017-08-15T07:26:46.448Z,80.40
2017-08-15T07:29:14.033Z,80.60
2017-08-15T07:31:41.533Z,80.20
2017-08-15T07:34:09.042Z,80.00
2017-08-15T07:36:37.301Z,79.50
2017-08-15T07:39:04.935Z,79.50
2017-08-15T07:41:32.428Z,79.20
2017-08-15T07:44:00.731Z,79.10
2017-08-15T07:46:28.269Z,79.10
2017-08-15T07:48:55.767Z,79.10
2017-08-15T07:51:23.267Z,79.00
2017-08-15T07:53:50.770Z,79.00
2017-08-15T07:56:18.280Z,78.70
2017-08-15T07:58:45.836Z,78.80
2017-08-15T08:01:13.338Z,78.70
2017-08-15T08:03:40.854Z,78.60
2017-08-15T08:06:08.361Z,78.30
2017-08-15T08:08:35.870Z,77.40
2017-08-15T08:11:03.402Z,77.10
2017-08-15T08:13:30.932Z,77.70
2017-08-15T08:15:58.421Z,78.00
2017-08-15T08:18:25.955Z,77.20
2017-08-15T08:20:53.467Z,76.60
2017-08-15T08:23:20.968Z,75.80
2017-08-15T08:25:48.565Z,75.00
2017-08-15T08:28:16.080Z,75.30
2017-08-15T08:30:43.603Z,74.30
2017-08-15T08:33:11.094Z,75.30
2017-08-15T08:35:39.372Z,73.50
2017-08-15T08:38:07.688Z,72.60
2017-08-15T08:40:35.198Z,72.60
2017-08-15T08:43:02.699Z,73.10
2017-08-15T08:45:30.211Z,72.70
2017-08-15T08:47:57.719Z,72.30
2017-08-15T08:50:25.238Z,72.10
2017-08-15T08:52:52.762Z,71.40
2017-08-15T08:55:20.262Z,72.00
2017-08-15T08:57:48.542Z,72.00
2017-08-15T09:00:16.822Z,70.30
2017-08-15T09:02:45.107Z,70.40
2017-08-15T09:05:12.624Z,70.30
2017-08-15T09:07:40.134Z,70.50
2017-08-15T09:10:07.635Z,69.90
2017-08-15T09:12:35.182Z,70.30
2017-08-15T09:15:02.708Z,70.90
2017-08-15T09:17:30.214Z,69.60
2017-08-15T09:19:57.729Z,68.80
2017-08-15T09:22:25.228Z,68.30
2017-08-15T09:24:52.724Z,68.00
2017-08-15T09:27:20.284Z,68.00
2017-08-15T09:29:48.542Z,67.40
2017-08-15T09:32:16.186Z,66.90
2017-08-15T09:34:43.689Z,65.60
2017-08-15T09:37:11.950Z,64.50
2017-08-15T09:39:40.247Z,63.60
2017-08-15T09:42:08.620Z,63.60
2017-08-15T09:44:36.184Z,63.50
2017-08-15T09:47:04.450Z,62.90
2017-08-15T09:49:32.764Z,61.60
2017-08-15T09:52:00.272Z,61.60
2017-08-15T09:54:27.797Z,60.80
2017-08-15T09:56:55.301Z,61.00
2017-08-15T09:59:22.944Z,60.00
2017-08-15T10:01:50.547Z,58.70
2017-08-15T10:04:18.071Z,57.60
2017-08-15T10:06:45.552Z,55.80
2017-08-15T10:09:13.853Z,55.40
2017-08-15T10:11:41.335Z,55.40
2017-08-15T10:14:09.779Z,56.10
2017-08-15T10:16:37.318Z,55.00
2017-08-15T10:19:04.814Z,54.30
2017-08-15T10:21:32.324Z,53.70
2017-08-15T10:23:59.961Z,54.40
2017-08-15T10:26:27.460Z,54.30
2017-08-15T10:28:55.723Z,53.60
2017-08-15T10:31:23.256Z,53.90
2017-08-15T10:33:50.800Z,54.00
2017-08-15T10:36:18.308Z,53.40
2017-08-15T10:38:45.805Z,53.00
2017-08-15T10:41:13.324Z,51.70
2017-08-15T10:43:40.853Z,49.30
2017-08-15T10:46:08.531Z,45.60
2017-08-15T10:48:36.040Z,39.20
2017-08-15T10:51:03.542Z,36.20
2017-08-15T10:53:31.080Z,34.30
2017-08-15T10:55:58.909Z,31.40
2017-08-15T10:58:26.433Z,31.60
2017-08-15T11:00:53.937Z,30.10
2017-08-15T11:03:21.422Z,28.80
2017-08-15T11:05:48.984Z,27.80
2017-08-15T11:08:16.508Z,28.70
2017-08-15T11:10:44.924Z,29.40
2017-08-15T11:13:12.413Z,29.40
2017-08-15T11:15:39.923Z,29.60
2017-08-15T11:18:07.406Z,29.40
2017-08-15T11:20:34.919Z,28.70
2017-08-15T11:23:02.457Z,26.80
2017-08-15T11:25:29.990Z,25.70
2017-08-15T11:27:57.595Z,24.70
2017-08-15T11:30:25.935Z,24.50
2017-08-15T11:32:53.489Z,24.40
2017-08-15T11:35:21.141Z,23.70
2017-08-15T11:37:48.621Z,23.20
2017-08-15T11:40:16.111Z,22.30
2017-08-15T11:42:44.489Z,21.30
2017-08-15T11:45:11.992Z,21.30
2017-08-15T11:47:39.504Z,20.70
2017-08-15T11:50:07.020Z,20.00
2017-08-15T11:52:34.553Z,19.90
2017-08-15T11:55:02.076Z,19.80
2017-08-15T11:57:29.553Z,19.30
2017-08-15T11:59:57.819Z,19.80
2017-08-15T12:02:25.292Z,19.80
2017-08-15T12:04:53.555Z,22.50
2017-08-15T12:07:21.864Z,23.80
2017-08-15T12:09:49.842Z,24.70
2017-08-15T12:12:17.330Z,25.40
2017-08-15T12:14:44.806Z,26.50
2017-08-15T12:17:12.423Z,26.50
2017-08-15T12:19:39.932Z,26.40
2017-08-15T12:22:07.502Z,24.80
2017-08-15T12:24:35.038Z,23.70
2017-08-15T12:27:02.599Z,22.20
2017-08-15T12:29:30.098Z,22.60
2017-08-15T12:31:57.575Z,22.50
2017-08-15T12:34:25.071Z,22.20
2017-08-15T12:36:52.609Z,23.00
2017-08-15T12:39:20.092Z,24.00
2017-08-15T12:41:47.572Z,24.10
2017-08-15T12:44:15.120Z,23.80
2017-08-15T12:46:42.617Z,24.80
2017-08-15T12:49:10.107Z,25.20
2017-08-15T12:51:37.642Z,26.00
2017-08-15T12:54:05.138Z,27.00
2017-08-15T12:56:32.632Z,27.80
2017-08-15T12:59:00.443Z,28.20
2017-08-15T13:01:28.010Z,28.60
2017-08-15T13:03:56.755Z,28.90
2017-08-15T13:06:24.260Z,29.40
2017-08-15T13:08:51.768Z,29.70
2017-08-15T13:11:19.290Z,30.00
2017-08-15T13:13:46.818Z,30.00
2017-08-15T13:16:14.308Z,29.80
2017-08-15T13:18:41.869Z,28.80
2017-08-15T13:21:09.461Z,28.30
2017-08-15T13:23:37.737Z,25.90
2017-08-15T13:26:05.994Z,24.10
2017-08-15T13:28:33.519Z,24.10
2017-08-15T13:31:01.008Z,24.50
2017-08-15T13:33:28.550Z,24.80
2017-08-15T13:35:56.033Z,24.90
2017-08-15T13:38:23.527Z,25.00
2017-08-15T13:40:51.804Z,26.50
2017-08-15T13:43:19.292Z,26.50
2017-08-15T13:45:46.791Z,26.90
2017-08-15T13:48:14.285Z,28.60
2017-08-15T13:50:41.786Z,29.20
2017-08-15T13:53:09.271Z,30.00
2017-08-15T13:55:36.779Z,30.20
2017-08-15T13:58:04.280Z,30.60
2017-08-15T14:00:31.821Z,31.40
2017-08-15T14:02:59.335Z,31.80
2017-08-15T14:05:26.893Z,31.50
2017-08-15T14:07:54.394Z,31.00
2017-08-15T14:10:21.902Z,29.70
2017-08-15T14:12:49.457Z,30.00
2017-08-15T14:15:16.951Z,30.50
2017-08-15T14:17:44.456Z,30.00
2017-08-15T14:20:11.967Z,30.50
2017-08-15T14:22:39.465Z,31.70
2017-08-15T14:25:07.001Z,32.50
2017-08-15T14:27:34.494Z,32.60
2017-08-15T14:30:02.008Z,32.50
2017-08-15T14:32:29.561Z,32.40
2017-08-15T14:34:57.053Z,33.30
2017-08-15T14:37:24.554Z,33.60
2017-08-15T14:39:52.858Z,34.10
2017-08-15T14:42:20.405Z,34.10
2017-08-15T14:44:47.980Z,34.80
2017-08-15T14:47:15.533Z,34.60
2017-08-15T14:49:43.058Z,35.10
2017-08-15T14:52:11.365Z,35.50
2017-08-15T14:54:38.913Z,35.40
2017-08-15T14:57:06.426Z,35.30
2017-08-15T14:59:33.914Z,36.00
2017-08-15T15:02:01.463Z,35.50
2017-08-15T15:04:28.974Z,35.70
2017-08-15T15:06:56.456Z,37.00
2017-08-15T15:09:23.961Z,37.30
2017-08-15T15:11:52.236Z,37.40
2017-08-15T15:14:19.795Z,37.40
2017-08-15T15:16:47.303Z,37.10
2017-08-15T15:19:14.817Z,36.50
2017-08-15T15:21:43.091Z,36.60
2017-08-15T15:24:11.372Z,36.60
2017-08-15T15:26:38.890Z,36.60
2017-08-15T15:29:06.425Z,37.10
2017-08-15T15:31:33.959Z,37.40
2017-08-15T15:34:02.629Z,38.00
2017-08-15T15:36:30.947Z,37.80
2017-08-15T15:38:59.173Z,37.80
2017-08-15T15:41:26.688Z,37.60
2017-08-15T15:43:54.190Z,37.50
2017-08-15T15:46:21.717Z,37.90
2017-08-15T15:48:49.222Z,38.00
2017-08-15T15:51:17.526Z,37.60
2017-08-15T15:53:45.045Z,37.50
2017-08-15T15:56:12.632Z,38.00
2017-08-15T15:58:40.134Z,38.40
2017-08-15T16:01:07.784Z,37.10
2017-08-15T16:03:35.317Z,37.10
2017-08-15T16:06:02.821Z,35.80
2017-08-15T16:08:30.317Z,36.00
2017-08-15T16:10:58.639Z,35.50
2017-08-15T16:13:26.220Z,35.50
2017-08-15T16:15:53.856Z,36.00
2017-08-15T16:18:21.392Z,35.80
2017-08-15T16:20:48.909Z,37.30
2017-08-15T16:23:16.487Z,37.30
2017-08-15T16:25:44.847Z,37.00
2017-08-15T16:28:12.331Z,37.00
2017-08-15T16:30:39.906Z,37.30
2017-08-15T16:33:07.410Z,37.00
2017-08-15T16:35:34.908Z,37.60
2017-08-15T16:38:02.410Z,37.40
2017-08-15T16:40:29.959Z,37.90
2017-08-15T16:42:57.496Z,38.50
2017-08-15T16:45:25.020Z,38.30
2017-08-15T16:47:52.559Z,38.60
2017-08-15T16:50:20.125Z,38.50
2017-08-15T16:52:47.639Z,38.60
2017-08-15T16:55:15.205Z,38.80
2017-08-15T16:57:42.872Z,39.30
2017-08-15T17:00:10.483Z,39.20
2017-08-15T17:02:38.054Z,39.60
2017-08-15T17:05:05.591Z,40.70
2017-08-15T17:07:33.168Z,40.80
2017-08-15T17:10:00.691Z,40.50
2017-08-15T17:12:28.289Z,40.70
2017-08-15T17:14:55.811Z,40.80
2017-08-15T17:17:23.349Z,40.90
2017-08-15T17:19:51.216Z,41.20
2017-08-15T17:22:18.743Z,41.30
2017-08-15T17:24:46.289Z,41.50
2017-08-15T17:27:14.036Z,42.10
2017-08-15T17:29:41.601Z,42.20
2017-08-15T17:32:09.130Z,42.00
2017-08-15T17:34:36.715Z,42.50
2017-08-15T17:37:04.245Z,42.80
2017-08-15T17:39:31.790Z,43.00
2017-08-15T17:42:00.114Z,43.80
2017-08-15T17:44:27.638Z,43.80
2017-08-15T17:46:55.142Z,43.60
2017-08-15T17:49:22.869Z,43.90
2017-08-15T17:51:50.374Z,44.20
2017-08-15T17:54:17.865Z,44.50
2017-08-15T17:56:45.369Z,45.00
2017-08-15T17:59:12.945Z,45.40
2017-08-15T18:01:40.456Z,45.70
2017-08-15T18:04:07.990Z,46.40
2017-08-15T18:06:35.528Z,46.50
2017-08-15T18:09:03.027Z,47.10
2017-08-15T18:11:30.539Z,47.50
2017-08-15T18:13:58.038Z,47.60
2017-08-15T18:16:26.311Z,48.60
2017-08-15T18:18:53.826Z,48.50
2017-08-15T18:21:21.360Z,48.70
2017-08-15T18:23:48.901Z,49.20
2017-08-15T18:26:17.191Z,50.20
2017-08-15T18:28:44.699Z,50.20
2017-08-15T18:31:12.215Z,50.10
2017-08-15T18:33:39.727Z,50.20
2017-08-15T18:36:07.239Z,50.60
2017-08-15T18:38:34.732Z,50.80
2017-08-15T18:41:02.254Z,51.00
2017-08-15T18:43:29.762Z,51.30
2017-08-15T18:45:58.061Z,51.80
2017-08-15T18:48:26.429Z,51.90
2017-08-15T18:50:53.979Z,51.80
2017-08-15T18:53:21.508Z,52.10
2017-08-15T18:55:49.071Z,52.30
2017-08-15T18:58:16.565Z,53.00
2017-08-15T19:00:44.073Z,53.30
2017-08-15T19:03:11.817Z,53.40
2017-08-15T19:05:39.325Z,53.60
2017-08-15T19:08:06.846Z,54.00
2017-08-15T19:10:34.377Z,54.20
2017-08-15T19:13:01.927Z,54.70
2017-08-15T19:15:29.454Z,54.80
2017-08-15T19:17:56.966Z,55.10
2017-08-15T19:20:24.493Z,55.40
2017-08-15T19:22:52.042Z,55.90
2017-08-15T19:25:19.670Z,56.00
2017-08-15T19:27:47.206Z,56.20
2017-08-15T19:30:14.868Z,56.50
2017-08-15T19:32:42.387Z,56.60
2017-08-15T19:35:10.208Z,56.90
2017-08-15T19:37:37.758Z,57.00
2017-08-15T19:40:06.064Z,57.70
2017-08-15T19:42:33.636Z,57.60
2017-08-15T19:45:01.163Z,58.10
2017-08-15T19:47:29.400Z,58.70
2017-08-15T19:49:56.916Z,58.60
2017-08-15T19:52:25.197Z,58.90
2017-08-15T19:54:52.751Z,59.00
2017-08-15T19:57:20.294Z,59.10
2017-08-15T19:59:47.830Z,59.30
2017-08-15T20:02:15.397Z,59.60
2017-08-15T20:04:43.672Z,59.80
2017-08-15T20:07:11.169Z,59.80
2017-08-15T20:09:38.698Z,60.00
2017-08-15T20:12:06.240Z,60.20
2017-08-15T20:14:33.739Z,60.40
2017-08-15T20:17:01.294Z,61.10
2017-08-15T20:19:28.797Z,61.10
2017-08-15T20:21:56.514Z,61.40
2017-08-15T20:24:24.540Z,61.30
2017-08-15T20:26:52.050Z,61.50
2017-08-15T20:29:19.562Z,61.10
2017-08-15T20:31:47.077Z,61.60
2017-08-15T20:34:14.681Z,61.80
2017-08-15T20:36:42.189Z,62.00
2017-08-15T20:39:09.720Z,62.10
2017-08-15T20:41:39.064Z,61.90
2017-08-15T20:44:06.618Z,62.30
2017-08-15T20:46:34.245Z,62.50
2017-08-15T20:49:01.755Z,62.20
2017-08-15T20:51:29.248Z,62.20
2017-08-15T20:53:56.764Z,62.20
2017-08-15T20:56:24.265Z,62.90
2017-08-15T20:58:51.803Z,63.60
2017-08-15T21:01:19.305Z,63.50
2017-08-15T21:03:47.723Z,64.20
2017-08-15T21:06:15.258Z,63.70
2017-08-15T21:08:43.558Z,63.40
2017-08-15T21:11:11.468Z,63.40
2017-08-15T21:13:39.020Z,63.60
2017-08-15T21:16:06.585Z,63.70
2017-08-15T21:18:34.147Z,63.90
2017-08-15T21:21:01.666Z,63.70
2017-08-15T21:23:29.212Z,63.80
2017-08-15T21:25:56.740Z,63.60
2017-08-15T21:28:24.300Z,63.60
2017-08-15T21:30:51.835Z,63.30
2017-08-15T21:33:19.325Z,63.70
2017-08-15T21:35:51.005Z,64.20
2017-08-15T21:38:18.615Z,64.10
2017-08-15T21:40:46.159Z,63.90
2017-08-15T21:43:13.720Z,64.20
2017-08-15T21:45:41.342Z,64.10
2017-08-15T21:48:08.855Z,64.40
2017-08-15T21:50:36.509Z,64.50
2017-08-15T21:53:03.995Z,65.10
2017-08-15T21:55:31.499Z,65.00
2017-08-15T21:57:59.140Z,64.80
2017-08-15T22:00:26.652Z,64.80
2017-08-15T22:05:30.971Z,64.80
2017-08-15T22:07:58.597Z,64.10
2017-08-15T22:10:26.512Z,64.30
2017-08-15T22:12:54.038Z,64.30
2017-08-15T22:15:21.545Z,64.90
2017-08-15T22:17:49.070Z,65.00
2017-08-15T22:20:16.579Z,65.30
2017-08-15T22:22:44.085Z,65.80
2017-08-15T22:25:11.626Z,66.10
2017-08-15T22:27:39.142Z,65.70
2017-08-15T22:30:06.673Z,65.80
2017-08-15T22:32:34.187Z,66.50
2017-08-15T22:35:01.717Z,66.70
2017-08-15T22:37:29.224Z,66.00
2017-08-15T22:39:56.741Z,63.90
2017-08-15T22:42:24.274Z,65.50
2017-08-15T22:44:51.777Z,66.20
2017-08-15T22:47:19.344Z,64.80
2017-08-15T22:49:46.877Z,64.20
2017-08-15T22:52:14.484Z,63.40
2017-08-15T22:54:42.132Z,63.20
2017-08-15T22:57:09.672Z,64.50
2017-08-15T22:59:37.223Z,64.60
2017-08-15T23:02:04.737Z,64.20
2017-08-15T23:04:32.254Z,64.40
2017-08-15T23:06:59.756Z,64.50
2017-08-15T23:09:27.319Z,64.30
2017-08-15T23:11:54.819Z,63.80
2017-08-15T23:14:22.339Z,64.20
2017-08-15T23:16:49.877Z,66.50
2017-08-15T23:19:17.382Z,64.80
2017-08-15T23:21:44.888Z,64.20
2017-08-15T23:24:13.167Z,64.80
2017-08-15T23:26:41.454Z,65.60
2017-08-15T23:29:08.949Z,65.50
2017-08-15T23:31:36.459Z,65.70
2017-08-15T23:34:04.000Z,64.90
2017-08-15T23:36:31.526Z,64.60
2017-08-15T23:38:59.032Z,63.80
2017-08-15T23:41:26.567Z,63.50
2017-08-15T23:43:54.091Z,64.20
2017-08-15T23:46:21.650Z,64.70
2017-08-15T23:48:49.166Z,64.80
2017-08-15T23:51:17.453Z,64.90
2017-08-15T23:53:45.927Z,65.30
2017-08-15T23:56:13.538Z,65.30
2017-08-15T23:58:41.103Z,65.60
